Time;durP1;ratioP1;P1;durP2;ratioP2;P2;SDS_P1;SDS_P2;PMS_P1;PMS_P2;Temp;Humidity;BMP_temperature;BMP_pressure;BME280_temperature;BME280_humidity;BME280_pressure;Samples;Min_cycle;Max_cycle;Signal;HPM_P1;HPM_P2
2022/08/14 00:00:12;;;;;;;3.50;2.75;;;;;;;14.45;100.00;96306.34;5032243;28;20568;-65
2022/08/14 00:02:40;;;;;;;6.15;3.55;;;;;;;14.33;100.00;96304.81;5041372;28;20045;-67
2022/08/14 00:05:11;;;;;;;4.05;3.60;;;;;;;14.18;100.00;96303.31;5037537;28;20048;-70
2022/08/14 00:07:37;;;;;;;6.00;3.45;;;;;;;14.19;100.00;96299.34;5042889;28;20071;-68
2022/08/14 00:10:05;;;;;;;5.95;3.83;;;;;;;14.34;100.00;96301.66;5022298;28;20400;-64
2022/08/14 00:12:34;;;;;;;7.72;4.13;;;;;;;14.26;100.00;96293.81;5042392;28;20215;-70
2022/08/14 00:15:03;;;;;;;4.20;3.28;;;;;;;14.23;100.00;96283.63;5041982;28;20482;-68
2022/08/14 00:17:28;;;;;;;6.47;3.80;;;;;;;14.22;100.00;96282.81;5039207;28;20045;-69
2022/08/14 00:19:54;;;;;;;5.57;3.60;;;;;;;14.34;100.00;96268.59;5031651;28;20475;-68
2022/08/14 00:22:19;;;;;;;4.82;3.45;;;;;;;14.32;100.00;96275.69;5035688;28;20044;-67
2022/08/14 00:24:45;;;;;;;4.35;3.17;;;;;;;14.29;100.00;96265.47;5029109;28;20118;-68
2022/08/14 00:27:10;;;;;;;7.13;3.42;;;;;;;14.29;100.00;96273.75;5042363;28;20379;-68
2022/08/14 00:29:36;;;;;;;9.35;4.63;;;;;;;14.27;100.00;96274.13;5041129;28;20512;-68
2022/08/14 00:32:02;;;;;;;5.97;3.90;;;;;;;14.30;100.00;96267.84;5041092;28;20041;-66
2022/08/14 00:34:27;;;;;;;5.22;3.65;;;;;;;14.35;100.00;96261.13;5038061;28;20041;-70
2022/08/14 00:36:53;;;;;;;6.60;3.80;;;;;;;13.96;100.00;96248.31;5040448;28;20057;-68
2022/08/14 00:39:18;;;;;;;7.63;4.85;;;;;;;13.22;100.00;96244.56;5029954;28;20605;-67
2022/08/14 00:41:45;;;;;;;6.47;4.70;;;;;;;12.98;100.00;96241.44;5040962;28;20045;-71
2022/08/14 00:44:10;;;;;;;7.70;4.82;;;;;;;12.94;100.00;96224.94;5035762;28;20148;-66
2022/08/14 00:46:36;;;;;;;7.25;4.53;;;;;;;12.96;100.00;96224.56;5037994;28;20520;-68
2022/08/14 00:49:02;;;;;;;7.55;4.18;;;;;;;13.03;100.00;96221.03;5013410;28;20122;-64
2022/08/14 00:51:31;;;;;;;7.15;4.35;;;;;;;13.25;100.00;96217.03;5037590;28;20624;-67
2022/08/14 00:53:57;;;;;;;5.78;4.45;;;;;;;13.44;100.00;96215.88;5040671;28;20068;-67
2022/08/14 00:56:24;;;;;;;5.55;4.05;;;;;;;13.58;100.00;96218.56;5032649;28;20073;-67
2022/08/14 00:58:49;;;;;;;4.38;3.60;;;;;;;13.76;100.00;96220.50;5040147;28;20033;-69
2022/08/14 01:01:17;;;;;;;5.20;3.58;;;;;;;13.87;100.00;96223.19;5034204;28;20516;-67
2022/08/14 01:03:43;;;;;;;8.77;4.63;;;;;;;13.74;100.00;96226.38;5035212;28;20315;-68
2022/08/14 01:06:14;;;;;;;6.90;4.00;;;;;;;13.60;100.00;96237.44;5034698;28;20060;-67
2022/08/14 01:08:40;;;;;;;7.43;4.00;;;;;;;13.66;100.00;96235.06;5040349;28;20441;-66
2022/08/14 01:11:07;;;;;;;4.97;3.65;;;;;;;13.85;100.00;96226.34;5034012;28;20637;-67
2022/08/14 01:13:37;;;;;;;6.28;3.47;;;;;;;14.11;100.00;96227.00;5040574;28;20053;-68
2022/08/14 01:16:07;;;;;;;5.00;3.67;;;;;;;13.83;100.00;96233.41;5034293;28;20130;-66
2022/08/14 01:21:23;;;;;;;5.07;3.80;;;;;;;13.73;100.00;96235.03;5035119;28;20049;-68
2022/08/14 01:23:51;;;;;;;6.07;4.03;;;;;;;13.89;100.00;96240.09;5040186;28;20041;-69
2022/08/14 01:26:20;;;;;;;4.63;3.50;;;;;;;14.01;100.00;96236.09;5032324;28;20048;-67
2022/08/14 01:28:47;;;;;;;8.38;3.55;;;;;;;14.16;100.00;96229.34;5039711;28;20478;-68
2022/08/14 01:31:15;;;;;;;16.40;9.18;;;;;;;14.20;100.00;96226.56;5026579;28;20492;-68
2022/08/14 01:33:45;;;;;;;6.40;4.63;;;;;;;14.10;100.00;96220.72;5035761;28;20041;-69
2022/08/14 01:36:12;;;;;;;8.68;5.70;;;;;;;14.07;100.00;96216.00;5034833;28;20429;-68
2022/08/14 01:38:40;;;;;;;6.22;4.78;;;;;;;13.95;100.00;96210.97;5032493;28;20043;-69
2022/08/14 01:41:08;;;;;;;7.75;4.70;;;;;;;13.86;100.00;96202.34;5038285;28;20128;-68
2022/08/14 01:43:47;;;;;;;5.88;3.97;;;;;;;13.86;100.00;96194.09;5039723;28;20056;-68
2022/08/14 01:46:22;;;;;;;6.72;4.78;;;;;;;13.82;100.00;96201.59;5018282;28;20045;-67
2022/08/14 01:48:48;;;;;;;5.95;3.83;;;;;;;13.79;100.00;96202.38;5040064;28;20044;-67
2022/08/14 01:51:16;;;;;;;8.95;4.55;;;;;;;13.70;100.00;96200.84;5028295;28;20045;-66
2022/08/14 01:53:46;;;;;;;4.93;4.00;;;;;;;13.54;100.00;96189.50;5035164;28;20825;-67
2022/08/14 01:56:18;;;;;;;5.47;4.03;;;;;;;13.56;100.00;96182.44;5028734;28;20060;-67
2022/08/14 01:58:47;;;;;;;5.28;4.00;;;;;;;13.49;100.00;96178.94;5028631;28;20041;-66
2022/08/14 02:01:17;;;;;;;5.93;4.53;;;;;;;13.18;100.00;96175.81;5038620;28;20044;-66
2022/08/14 02:03:43;;;;;;;8.45;4.70;;;;;;;12.80;100.00;96181.78;5051342;28;20043;-68
2022/08/14 02:06:10;;;;;;;7.07;4.57;;;;;;;12.66;100.00;96176.28;5030306;28;20371;-67
2022/08/14 02:08:37;;;;;;;6.93;4.55;;;;;;;12.91;100.00;96176.28;5034137;28;20037;-67
2022/08/14 02:11:23;;;;;;;7.75;4.00;;;;;;;13.05;100.00;96174.69;5034471;28;20073;-66
2022/08/14 02:14:04;;;;;;;4.82;3.85;;;;;;;13.17;100.00;96172.28;5035320;28;20041;-67
2022/08/14 02:16:37;;;;;;;7.15;4.28;;;;;;;12.94;100.00;96174.69;5036159;28;20610;-69
2022/08/14 02:19:06;;;;;;;6.97;4.35;;;;;;;12.80;100.00;96156.25;5033667;28;20041;-66
2022/08/14 02:21:31;;;;;;;5.68;4.63;;;;;;;12.59;100.00;96171.56;5036661;28;20049;-69
2022/08/14 02:24:00;;;;;;;7.97;4.78;;;;;;;12.45;100.00;96157.84;5037050;28;20037;-69
2022/08/14 02:26:38;;;;;;;7.90;4.45;;;;;;;12.54;100.00;96152.72;5030472;28;20740;-68
2022/08/14 02:29:13;;;;;;;6.60;4.40;;;;;;;12.67;100.00;96152.34;5032337;28;20040;-67
2022/08/14 02:31:42;;;;;;;5.95;4.18;;;;;;;12.84;100.00;96159.00;5024091;28;20648;-69
2022/08/14 02:34:12;;;;;;;5.78;4.05;;;;;;;12.56;100.00;96153.13;5029715;28;20075;-68
2022/08/14 02:36:39;;;;;;;7.68;4.20;;;;;;;12.63;100.00;96155.09;5036717;28;20045;-70
2022/08/14 02:39:06;;;;;;;5.90;4.40;;;;;;;12.63;100.00;96166.09;5030964;28;20064;-66
2022/08/14 02:41:33;;;;;;;8.63;4.47;;;;;;;12.52;100.00;96160.59;5036104;28;20057;-69
2022/08/14 02:43:58;;;;;;;4.97;4.47;;;;;;;12.19;100.00;96148.81;5033849;28;20029;-69
2022/08/14 02:46:24;;;;;;;6.20;5.25;;;;;;;11.79;100.00;96142.44;5031159;28;20988;-70
2022/08/14 02:48:50;;;;;;;7.55;5.38;;;;;;;11.57;100.00;96135.31;5035887;28;20048;-69
2022/08/14 02:51:16;;;;;;;8.60;4.95;;;;;;;11.54;100.00;96139.63;5031217;28;20033;-69
2022/08/14 02:53:44;;;;;;;6.25;4.53;;;;;;;11.64;100.00;96138.06;5037199;28;20041;-69
2022/08/14 02:56:13;;;;;;;6.88;4.50;;;;;;;11.74;100.00;96139.25;5027728;28;20041;-69
2022/08/14 02:58:41;;;;;;;7.03;4.40;;;;;;;11.73;100.00;96143.19;5036888;28;20525;-69
2022/08/14 03:01:07;;;;;;;9.02;3.95;;;;;;;11.94;100.00;96137.78;5013841;28;20099;-68
2022/08/14 03:03:35;;;;;;;7.38;4.28;;;;;;;12.21;100.00;96129.19;5036557;28;20107;-67
2022/08/14 03:06:00;;;;;;;5.13;4.10;;;;;;;12.34;100.00;96132.34;5035079;28;20041;-69
2022/08/14 03:08:30;;;;;;;6.18;4.30;;;;;;;12.45;100.00;96138.63;5031607;28;20052;-69
2022/08/14 03:10:56;;;;;;;10.75;4.60;;;;;;;12.45;100.00;96135.09;5038105;28;20503;-69
2022/08/14 03:13:21;;;;;;;5.40;4.15;;;;;;;12.51;100.00;96136.25;5034590;28;20610;-69
2022/08/14 03:15:52;;;;;;;5.60;4.15;;;;;;;12.59;100.00;96122.13;5040055;28;20497;-68
2022/08/14 03:18:22;;;;;;;6.25;3.90;;;;;;;12.59;100.00;96110.38;5032163;28;20101;-69
2022/08/14 03:20:48;;;;;;;6.15;4.15;;;;;;;12.72;100.00;96106.03;5039476;28;20445;-67
2022/08/14 03:23:13;;;;;;;4.97;4.18;;;;;;;12.70;100.00;96105.63;5032773;28;20106;-68
2022/08/14 03:25:39;;;;;;;6.72;3.95;;;;;;;12.57;100.00;96102.50;5037952;28;20037;-70
2022/08/14 03:28:07;;;;;;;6.82;4.65;;;;;;;12.21;100.00;96102.53;5034772;28;20040;-66
2022/08/14 03:30:32;;;;;;;5.38;4.40;;;;;;;11.86;100.00;96103.22;5039928;28;20155;-69
2022/08/14 03:32:58;;;;;;;7.00;4.25;;;;;;;11.96;100.00;96091.53;5039134;28;20079;-68
2022/08/14 03:35:24;;;;;;;5.32;4.03;;;;;;;12.01;100.00;96091.16;5033999;28;20898;-66
2022/08/14 03:37:53;;;;;;;4.93;4.10;;;;;;;12.10;100.00;96092.69;5037638;28;20035;-67
2022/08/14 03:40:23;;;;;;;4.88;3.80;;;;;;;12.23;100.00;96093.91;5034515;28;20028;-65
2022/08/14 03:42:49;;;;;;;8.00;4.75;;;;;;;12.39;100.00;96086.03;5038057;28;20052;-66
2022/08/14 03:45:15;;;;;;;5.25;4.05;;;;;;;12.40;100.00;96086.81;5032616;28;20037;-64
2022/08/14 03:47:40;;;;;;;5.18;4.40;;;;;;;12.40;100.00;96075.84;5036395;28;20041;-66
2022/08/14 03:50:09;;;;;;;5.57;4.55;;;;;;;12.47;100.00;96081.31;5019643;28;20043;-66
2022/08/14 03:52:38;;;;;;;5.13;4.63;;;;;;;12.26;100.00;96073.88;5037973;28;20107;-67
2022/08/14 03:55:06;;;;;;;6.60;4.65;;;;;;;11.96;100.00;96082.53;5034524;28;20128;-67
2022/08/14 03:57:34;;;;;;;9.63;4.70;;;;;;;11.93;100.00;96080.53;5039648;28;20103;-68
2022/08/14 04:00:04;;;;;;;7.22;4.75;;;;;;;11.97;100.00;96073.88;5039732;28;20448;-68
2022/08/14 04:02:30;;;;;;;6.88;4.78;;;;;;;12.10;100.00;96071.53;5038037;28;20049;-68
2022/08/14 04:04:55;;;;;;;5.65;4.30;;;;;;;12.21;100.00;96077.81;5039616;28;20041;-67
2022/08/14 04:07:21;;;;;;;6.30;4.60;;;;;;;12.23;100.00;96075.47;5032034;28;20127;-69
2022/08/14 04:09:46;;;;;;;6.18;4.30;;;;;;;12.12;100.00;96076.63;5037306;28;20086;-68
2022/08/14 04:12:12;;;;;;;5.85;4.32;;;;;;;12.24;100.00;96071.53;5031722;28;20037;-66
2022/08/14 04:14:38;;;;;;;6.70;5.13;;;;;;;12.41;100.00;96074.66;5038633;28;20104;-67
2022/08/14 04:17:03;;;;;;;5.57;4.00;;;;;;;12.39;100.00;96079.78;5034020;28;20136;-65
2022/08/14 04:19:29;;;;;;;6.97;5.18;;;;;;;12.41;100.00;96080.16;5036716;28;20052;-67
2022/08/14 04:21:54;;;;;;;8.75;4.40;;;;;;;12.44;100.00;96084.84;5038822;28;20045;-66
2022/08/14 04:24:19;;;;;;;4.88;3.72;;;;;;;12.50;100.00;96094.28;5033822;28;20540;-67
2022/08/14 04:26:46;;;;;;;5.03;4.38;;;;;;;12.47;100.00;96094.28;5038714;28;20044;-67
2022/08/14 04:29:12;;;;;;;7.30;4.68;;;;;;;12.39;100.00;96097.03;5034797;28;20132;-67
2022/08/14 04:31:38;;;;;;;6.40;4.57;;;;;;;12.48;100.00;96099.38;5038966;28;20084;-68
2022/08/14 04:34:04;;;;;;;5.50;4.63;;;;;;;12.65;100.00;96102.50;5028482;28;20132;-64
2022/08/14 04:36:31;;;;;;;6.40;4.30;;;;;;;12.70;100.00;96091.13;5040216;28;20045;-67
2022/08/14 04:44:25;;;;;;;5.22;4.40;;;;;;;12.37;100.00;96090.34;5035221;28;20045;-67
2022/08/14 04:49:35;;;;;;;6.72;4.40;;;;;;;12.67;100.00;96087.19;5039352;28;20049;-65
2022/08/14 04:52:03;;;;;;;7.78;5.00;;;;;;;12.67;100.00;96092.69;5040476;28;20044;-67
2022/08/14 04:54:29;;;;;;;6.75;5.05;;;;;;;12.96;100.00;96087.13;5037297;28;20045;-66
2022/08/14 04:56:55;;;;;;;5.20;4.40;;;;;;;13.27;100.00;96087.41;5031898;28;20037;-66
2022/08/14 04:59:21;;;;;;;5.80;4.68;;;;;;;13.00;100.00;96080.44;5034458;28;20115;-66
2022/08/14 05:01:46;;;;;;;7.63;5.63;;;;;;;12.96;100.00;96076.13;5030779;28;20056;-66
2022/08/14 05:04:12;;;;;;;7.20;4.68;;;;;;;13.22;100.00;96071.31;5025489;28;20045;-65
2022/08/14 05:06:38;;;;;;;6.18;4.60;;;;;;;13.51;100.00;96066.50;5041596;28;20045;-66
2022/08/14 05:09:05;;;;;;;5.72;4.40;;;;;;;13.66;100.00;96069.97;5037669;28;20211;-64
2022/08/14 05:11:32;;;;;;;6.25;4.25;;;;;;;13.92;100.00;96079.63;5033005;28;20354;-67
2022/08/14 05:14:00;;;;;;;6.78;4.32;;;;;;;14.30;100.00;96088.00;5023100;28;20045;-67
2022/08/14 05:16:28;;;;;;;6.30;3.90;;;;;;;15.10;100.00;96091.59;5016579;28;20516;-67
2022/08/14 05:18:54;;;;;;;9.52;3.78;;;;;;;15.95;96.44;96085.41;5039128;28;20121;-67
2022/08/14 05:21:20;;;;;;;6.00;3.80;;;;;;;16.51;90.56;96084.94;5034504;28;20048;-64
2022/08/14 05:23:46;;;;;;;5.10;3.55;;;;;;;16.78;90.27;96082.91;5039788;28;20138;-68
2022/08/14 05:26:16;;;;;;;5.95;3.53;;;;;;;17.06;88.06;96082.81;5013367;28;20553;-67
2022/08/14 05:28:43;;;;;;;;;;;;;;;17.12;87.04;96084.66;5039951;28;20033;-67
2022/08/14 05:31:09;;;;;;;4.30;3.17;;;;;;;16.94;85.82;96092.50;5034477;28;19916;-67
2022/08/14 05:33:35;;;;;;;4.38;3.40;;;;;;;17.31;85.74;96085.09;5020736;28;20515;-66
2022/08/14 05:36:05;;;;;;;4.80;3.75;;;;;;;17.32;86.54;96075.56;5030911;28;20508;-67
2022/08/14 05:38:32;;;;;;;;;;;;;;;17.23;85.36;96089.97;5039026;28;20040;-67
2022/08/14 05:41:02;;;;;;;6.63;3.28;;;;;;;17.16;85.32;96092.88;5038511;28;20531;-66
2022/08/14 05:43:29;;;;;;;4.55;3.05;;;;;;;17.52;85.56;96092.97;5016917;28;20037;-70
2022/08/14 05:45:56;;;;;;;5.78;3.67;;;;;;;17.47;85.11;96085.16;5039164;28;20505;-66
2022/08/14 05:48:23;;;;;;;5.80;3.65;;;;;;;17.90;83.51;96089.03;5032162;28;20053;-67
2022/08/14 05:50:48;;;;;;;4.82;3.92;;;;;;;17.98;84.57;96090.41;5023916;28;20503;-66
2022/08/14 05:53:14;;;;;;;4.55;3.20;;;;;;;18.94;78.84;96086.53;5032642;28;20059;-65
2022/08/14 05:55:39;;;;;;;7.22;2.95;;;;;;;19.84;72.70;96086.81;5037922;28;20048;-66
2022/08/14 05:58:06;;;;;;;7.70;3.20;;;;;;;21.31;68.40;96084.03;5034290;28;20033;-64
2022/08/14 06:00:36;;;;;;;6.82;3.20;;;;;;;22.23;61.63;96076.19;5038972;28;20045;-65
2022/08/14 06:03:04;;;;;;;6.18;2.90;;;;;;;23.43;57.13;96067.25;5018163;28;20048;-64
2022/08/14 06:05:30;;;;;;;3.35;2.50;;;;;;;23.99;53.85;96070.72;5024813;28;20049;-64
2022/08/14 06:07:57;;;;;;;4.50;2.72;;;;;;;25.07;49.77;96065.50;5028660;28;20505;-65
2022/08/14 06:10:24;;;;;;;5.88;2.50;;;;;;;26.26;44.20;96057.94;5016961;28;20045;-65
2022/08/14 06:12:49;;;;;;;3.88;2.40;;;;;;;27.34;42.12;96056.59;5039231;28;20037;-65
2022/08/14 06:15:15;;;;;;;3.65;2.15;;;;;;;28.11;40.53;96049.41;5034024;28;20037;-65
2022/08/14 06:17:45;;;;;;;7.57;2.10;;;;;;;29.19;38.02;96050.81;5026491;28;20055;-64
2022/08/14 06:20:12;;;;;;;3.38;2.10;;;;;;;28.62;39.09;96043.34;5033870;28;20056;-66
2022/08/14 06:22:39;;;;;;;5.13;2.30;;;;;;;29.50;37.89;96041.38;5037412;28;20049;-66
2022/08/14 06:25:05;;;;;;;3.72;2.05;;;;;;;29.88;36.03;96038.38;5012524;28;20073;-64
2022/08/14 06:27:43;;;;;;;3.95;2.15;;;;;;;30.77;33.48;96030.31;5022362;28;20049;-65
2022/08/14 06:30:17;;;;;;;2.57;1.80;;;;;;;30.91;32.92;96031.31;5001204;28;20092;-64
2022/08/14 06:32:43;;;;;;;3.97;2.20;;;;;;;30.16;34.39;96031.97;5006831;28;20052;-65
2022/08/14 06:35:11;;;;;;;5.00;2.22;;;;;;;30.00;33.88;96022.22;5033648;28;20098;-65
2022/08/14 06:37:53;;;;;;;7.85;2.63;;;;;;;27.11;39.44;96021.78;5024007;28;20543;-68
2022/08/14 06:40:27;;;;;;;3.90;2.35;;;;;;;26.00;43.22;96006.50;5032704;28;20048;-66
2022/08/14 06:42:54;;;;;;;6.25;2.30;;;;;;;27.19;41.32;96006.03;5040356;28;20041;-64
2022/08/14 06:45:20;;;;;;;2.85;2.10;;;;;;;26.73;41.72;96001.94;5036903;28;20041;-65
2022/08/14 06:47:46;;;;;;;2.63;2.00;;;;;;;23.07;48.95;96010.94;5032444;28;20398;-65
2022/08/14 06:50:15;;;;;;;4.53;2.35;;;;;;;21.02;56.43;96007.09;5037281;28;20056;-65
2022/08/14 06:52:41;;;;;;;6.40;2.55;;;;;;;21.35;54.23;95996.31;5043617;28;20037;-65
2022/08/14 06:55:09;;;;;;;4.10;2.30;;;;;;;22.53;52.30;96001.31;5039155;28;20049;-65
2022/08/14 06:57:44;;;;;;;5.25;2.45;;;;;;;21.77;54.24;95993.16;5040092;28;20060;-65
2022/08/14 07:00:15;;;;;;;2.95;2.40;;;;;;;21.87;54.02;95996.75;5036547;28;20053;-65
2022/08/14 07:08:18;;;;;;;7.25;3.00;;;;;;;23.27;51.00;96012.50;5036650;28;20138;-65
2022/08/14 07:10:46;;;;;;;5.25;2.30;;;;;;;24.27;48.04;96014.66;5041210;28;20134;-65
2022/08/14 07:13:12;;;;;;;5.05;2.50;;;;;;;23.12;51.42;96012.34;5036912;28;20036;-65
2022/08/14 07:15:39;;;;;;;2.88;2.05;;;;;;;23.63;49.14;96019.25;5041226;28;20102;-65
2022/08/14 07:18:06;;;;;;;8.68;2.33;;;;;;;21.88;55.16;96014.28;5034503;28;20476;-63
2022/08/14 07:20:32;;;;;;;4.18;2.25;;;;;;;23.73;49.61;96017.94;5041323;28;20556;-65
2022/08/14 07:23:02;;;;;;;3.08;2.35;;;;;;;23.84;49.99;96017.47;5039555;28;20059;-66
2022/08/14 07:25:28;;;;;;;4.18;2.30;;;;;;;21.82;54.37;96018.88;4980355;28;20041;-65
2022/08/14 07:27:54;;;;;;;5.78;2.25;;;;;;;21.57;55.16;96010.25;5023061;28;20045;-67
2022/08/14 07:30:20;;;;;;;4.47;2.28;;;;;;;20.59;56.07;96012.13;5037866;28;20067;-64
2022/08/14 07:32:46;;;;;;;4.70;2.60;;;;;;;20.72;57.27;96020.44;5042620;28;20123;-64
2022/08/14 07:35:11;;;;;;;3.72;2.17;;;;;;;22.57;51.87;96021.44;5019453;28;20033;-64
2022/08/14 07:37:37;;;;;;;3.45;2.42;;;;;;;22.83;51.82;96019.16;5041223;28;20041;-65
2022/08/14 07:40:04;;;;;;;3.10;2.20;;;;;;;22.32;52.04;96022.50;5040826;28;20616;-63
2022/08/14 07:42:31;;;;;;;4.90;2.05;;;;;;;21.95;53.44;96025.16;5023072;28;20581;-66
2022/08/14 07:44:58;;;;;;;4.20;2.20;;;;;;;22.59;51.34;96023.78;5039993;28;20045;-66
2022/08/14 07:47:24;;;;;;;4.30;2.20;;;;;;;22.84;49.67;96022.72;5036440;28;20980;-66
2022/08/14 07:50:14;;;;;;;4.07;2.20;;;;;;;22.61;50.99;96032.47;5041234;28;20037;-67
2022/08/14 07:52:44;;;;;;;13.80;9.52;;;;;;;23.22;49.10;96027.84;5023316;28;20099;-67
2022/08/14 07:55:12;;;;;;;4.90;2.50;;;;;;;23.58;48.21;96028.25;5032038;28;20033;-67
2022/08/14 07:57:39;;;;;;;3.95;2.47;;;;;;;24.23;45.35;96026.03;5037935;28;20109;-67
2022/08/14 08:00:27;;;;;;;3.83;2.40;;;;;;;23.98;46.50;96021.63;5036296;28;20032;-63
2022/08/14 08:02:54;;;;;;;3.57;2.00;;;;;;;23.94;47.19;96021.03;5017014;28;20493;-66
2022/08/14 08:05:23;;;;;;;3.38;2.00;;;;;;;26.35;40.81;96025.41;5037213;28;20041;-66
2022/08/14 08:07:49;;;;;;;;;;;;;;;25.82;41.43;96019.50;5043834;28;20044;-66
2022/08/14 08:10:33;;;;;;;2.75;2.00;;;;;;;27.48;38.79;96026.78;5038282;28;19912;-64
2022/08/14 08:13:14;;;;;;;5.90;1.80;;;;;;;28.00;37.22;96029.59;5043669;28;20528;-66
2022/08/14 08:15:52;;;;;;;4.53;2.33;;;;;;;25.13;40.88;96033.53;5039251;28;20045;-64
2022/08/14 08:18:19;;;;;;;3.00;2.00;;;;;;;23.47;45.89;96025.94;5034712;28;20040;-65
2022/08/14 08:20:47;;;;;;;9.98;5.43;;;;;;;24.84;44.51;96028.63;5040614;28;20040;-65
2022/08/14 08:23:15;;;;;;;7.75;4.65;;;;;;;27.81;38.28;96027.13;5020416;28;20049;-65
2022/08/14 08:25:42;;;;;;;3.33;2.05;;;;;;;27.85;36.49;96032.50;5041774;28;20051;-65
2022/08/14 08:28:12;;;;;;;4.13;2.67;;;;;;;27.43;37.60;96031.88;5038543;28;20075;-65
2022/08/14 08:30:40;;;;;;;4.82;2.88;;;;;;;29.87;33.35;96031.97;5038573;28;20041;-64
2022/08/14 08:33:09;;;;;;;3.53;1.80;;;;;;;28.61;35.46;96034.09;5020289;28;20059;-64
2022/08/14 08:35:37;;;;;;;2.17;1.73;;;;;;;30.32;32.52;96042.47;5040510;28;20490;-65
2022/08/14 08:38:09;;;;;;;7.28;2.30;;;;;;;31.67;29.84;96037.66;5023489;28;20041;-64
2022/08/14 08:40:38;;;;;;;2.28;1.48;;;;;;;32.06;29.62;96028.13;5043407;28;20033;-66
2022/08/14 08:43:06;;;;;;;4.60;2.15;;;;;;;31.04;31.28;96026.66;5035364;28;20060;-64
2022/08/14 08:45:35;;;;;;;2.80;1.85;;;;;;;32.12;29.49;96032.41;5038367;28;20045;-65
2022/08/14 08:48:02;;;;;;;3.50;1.48;;;;;;;32.25;28.65;96028.19;5040877;28;20127;-66
2022/08/14 08:50:37;;;;;;;2.22;1.38;;;;;;;29.52;33.05;96012.69;5039666;28;20041;-65
2022/08/14 08:53:07;;;;;;;3.60;1.80;;;;;;;29.40;34.42;96003.41;5038006;28;20532;-64
2022/08/14 08:55:34;;;;;;;3.53;1.67;;;;;;;29.79;33.56;95990.66;4989849;28;20121;-65
2022/08/14 08:58:08;;;;;;;5.65;1.80;;;;;;;29.72;32.40;95987.03;5041167;28;20124;-65
2022/08/14 09:00:36;;;;;;;2.78;1.67;;;;;;;27.55;36.23;95987.78;5040204;28;20044;-66
2022/08/14 09:03:17;;;;;;;2.75;2.03;;;;;;;29.39;34.14;95998.28;5040097;28;20045;-66
2022/08/14 09:05:51;;;;;;;3.10;1.80;;;;;;;30.71;31.35;95993.59;5038383;28;20041;-66
2022/08/14 09:08:23;;;;;;;2.80;1.55;;;;;;;31.42;31.20;96001.50;5035447;28;20037;-66
2022/08/14 09:10:49;;;;;;;2.05;1.50;;;;;;;30.34;30.73;96002.44;5042061;28;20490;-66
2022/08/14 09:13:16;;;;;;;6.72;1.70;;;;;;;28.27;34.74;95997.28;5044646;28;20037;-69
2022/08/14 09:15:44;;;;;;;2.17;1.40;;;;;;;28.17;35.95;95985.44;5031305;28;20037;-67
2022/08/14 09:18:11;;;;;;;2.67;1.60;;;;;;;28.08;36.23;95973.63;5040899;28;20517;-66
2022/08/14 09:20:39;;;;;;;4.35;1.50;;;;;;;30.34;31.92;95966.47;5043942;28;20076;-68
2022/08/14 09:23:09;;;;;;;5.63;2.20;;;;;;;29.59;33.33;95971.91;5035910;28;20041;-65
2022/08/14 09:25:35;;;;;;;5.05;1.63;;;;;;;31.04;31.83;95977.81;5038507;28;20047;-67
2022/08/14 09:28:03;;;;;;;2.42;1.40;;;;;;;30.38;32.42;95978.31;5039863;28;20116;-67
2022/08/14 09:30:31;;;;;;;4.63;1.60;;;;;;;30.33;32.71;95986.75;5037815;28;20053;-66
2022/08/14 09:33:03;;;;;;;2.30;1.40;;;;;;;30.41;33.54;95985.72;5040883;28;20044;-66
2022/08/14 09:35:55;;;;;;;3.83;1.90;;;;;;;30.56;33.93;95984.66;5040551;28;20041;-67
2022/08/14 09:38:31;;;;;;;5.32;1.77;;;;;;;29.18;35.75;95978.78;5014981;28;20128;-66
2022/08/14 09:41:22;;;;;;;3.47;1.83;;;;;;;29.48;34.84;95976.25;5040385;28;20041;-68
2022/08/14 09:44:03;;;;;;;2.78;1.90;;;;;;;29.56;35.26;95965.22;5043723;28;20044;-67
2022/08/14 09:46:30;;;;;;;5.38;2.20;;;;;;;30.04;35.72;95952.91;5042707;28;20508;-69
2022/08/14 09:48:59;;;;;;;6.63;1.83;;;;;;;30.01;34.68;95962.41;5045066;28;20087;-66
2022/08/14 09:51:26;;;;;;;3.28;1.95;;;;;;;30.34;34.72;95957.25;5039392;28;20045;-68
2022/08/14 09:54:09;;;;;;;3.10;1.92;;;;;;;30.13;34.23;95956.78;5042765;28;20056;-68
2022/08/14 09:56:45;;;;;;;6.03;2.25;;;;;;;31.04;32.41;95949.53;5040294;28;20052;-66
2022/08/14 09:59:13;;;;;;;3.30;1.85;;;;;;;30.81;32.39;95943.97;5036444;28;20087;-65
2022/08/14 10:01:40;;;;;;;3.00;1.60;;;;;;;31.18;32.12;95954.06;5039588;28;20059;-66
2022/08/14 10:04:22;;;;;;;4.45;2.40;;;;;;;30.41;34.17;95954.66;5038017;28;20124;-66
2022/08/14 10:06:48;;;;;;;4.13;2.00;;;;;;;30.79;34.00;95951.44;5040655;28;20064;-66
2022/08/14 10:09:14;;;;;;;7.20;1.83;;;;;;;30.41;34.28;95949.00;5035834;28;20057;-66
2022/08/14 10:11:40;;;;;;;3.65;2.20;;;;;;;30.39;34.20;95951.56;5021197;28;20037;-66
2022/08/14 10:14:15;;;;;;;3.00;1.75;;;;;;;29.87;35.45;95949.34;5034658;28;20373;-67
2022/08/14 10:16:52;;;;;;;3.22;1.98;;;;;;;30.10;35.23;95938.78;5042009;28;20044;-68
2022/08/14 10:19:18;;;;;;;2.28;1.50;;;;;;;29.80;35.77;95938.56;5033341;28;20033;-66
2022/08/14 10:22:07;;;;;;;3.10;2.03;;;;;;;30.67;33.75;95939.41;5025904;28;20045;-68
2022/08/14 10:24:38;;;;;;;3.15;1.85;;;;;;;30.67;33.75;95928.13;5043557;28;20132;-68
2022/08/14 10:27:18;;;;;;;4.45;2.22;;;;;;;30.85;33.57;95933.16;5040547;28;20041;-65
2022/08/14 10:29:48;;;;;;;3.58;1.70;;;;;;;30.59;33.11;95938.41;5024845;28;20056;-67
2022/08/14 10:32:14;;;;;;;3.33;1.60;;;;;;;30.57;34.13;95930.44;5043429;28;20041;-66
2022/08/14 10:34:40;;;;;;;3.25;1.70;;;;;;;30.76;33.43;95927.81;5038320;28;20040;-70
2022/08/14 10:37:11;;;;;;;3.40;1.73;;;;;;;30.84;32.94;95928.03;5039597;28;20045;-68
2022/08/14 10:39:39;;;;;;;2.10;1.60;;;;;;;29.90;35.89;95926.50;5044871;28;20386;-70
2022/08/14 10:42:13;;;;;;;3.00;1.85;;;;;;;31.01;33.81;95925.16;5039428;28;20048;-66
2022/08/14 10:44:48;;;;;;;5.60;1.60;;;;;;;31.82;32.37;95927.66;5041446;28;20076;-67
2022/08/14 10:47:16;;;;;;;3.08;1.90;;;;;;;31.42;32.21;95924.34;5038776;28;20045;-67
2022/08/14 10:49:55;;;;;;;2.88;1.83;;;;;;;31.15;32.32;95923.25;5045991;28;20037;-66
2022/08/14 10:52:28;;;;;;;2.75;1.67;;;;;;;31.24;32.34;95920.09;5037151;28;20044;-67
2022/08/14 10:55:08;;;;;;;3.88;1.73;;;;;;;31.19;32.46;95918.09;5038921;28;20037;-66
2022/08/14 10:57:46;;;;;;;5.10;1.50;;;;;;;31.28;32.82;95911.31;5045231;28;20437;-66
2022/08/14 11:00:15;;;;;;;4.05;1.50;;;;;;;31.43;32.61;95914.56;5032826;28;20037;-65
2022/08/14 11:02:41;;;;;;;2.20;1.50;;;;;;;31.72;32.67;95915.88;5043909;28;20057;-67
2022/08/14 11:05:12;;;;;;;2.88;1.35;;;;;;;30.91;31.76;95906.91;5039806;28;20044;-66
2022/08/14 11:07:39;;;;;;;2.15;1.40;;;;;;;31.39;31.76;95908.44;5047537;28;20079;-67
2022/08/14 11:10:13;;;;;;;2.45;1.52;;;;;;;30.74;33.32;95893.66;5044410;28;20137;-66
2022/08/14 11:12:47;;;;;;;5.43;1.70;;;;;;;30.19;34.87;95889.75;5039709;23;20129;-60
2022/08/14 11:15:17;;;;;;;5.63;1.67;;;;;;;29.99;35.14;95890.81;4999738;28;20107;-62
2022/08/14 11:17:46;;;;;;;3.47;1.88;;;;;;;30.05;34.78;95880.28;5023746;28;20038;-61
2022/08/14 11:20:12;;;;;;;3.63;1.52;;;;;;;30.35;33.14;95888.19;5017784;28;20434;-64
2022/08/14 11:22:40;;;;;;;4.15;1.42;;;;;;;30.10;32.88;95887.97;5021188;28;20133;-64
2022/08/14 11:25:08;;;;;;;3.03;1.50;;;;;;;30.21;32.37;95885.09;5020143;28;20740;-64
2022/08/14 11:27:34;;;;;;;2.15;1.50;;;;;;;29.81;34.81;95886.50;5023010;28;20091;-63
2022/08/14 11:30:05;;;;;;;3.55;1.50;;;;;;;29.69;35.11;95886.50;5019011;28;20128;-63
2022/08/14 11:32:31;;;;;;;7.38;1.40;;;;;;;29.61;34.92;95879.81;5019726;28;20111;-62
2022/08/14 11:34:57;;;;;;;3.35;1.70;;;;;;;29.36;35.16;95884.44;5007438;28;20456;-63
2022/08/14 11:37:23;;;;;;;3.78;1.67;;;;;;;29.45;35.29;95878.53;5018157;28;20236;-63
2022/08/14 11:39:48;;;;;;;3.40;1.40;;;;;;;30.11;35.09;95886.69;5031167;28;20037;-63
2022/08/14 11:42:25;;;;;;;3.33;1.58;;;;;;;30.05;35.32;95878.25;5029917;28;20041;-63
2022/08/14 11:44:56;;;;;;;4.72;1.90;;;;;;;29.66;35.71;95870.59;5035345;28;20050;-63
2022/08/14 11:47:22;;;;;;;3.22;1.60;;;;;;;29.24;35.43;95875.22;5017316;28;20129;-63
2022/08/14 11:49:48;;;;;;;1.98;1.45;;;;;;;28.85;37.56;95867.47;5022368;28;20128;-63
2022/08/14 11:52:18;;;;;;;6.22;1.75;;;;;;;28.97;37.60;95874.66;5018380;28;20080;-62